Saunders, Virginia
Current Conditions -  °F | °C
As of 9:54 PM on Tuesday 25 Nov 2014 (Local Time) from KRIC Reporting Station
Overcast Overcast  
Wind Chill: 52°   Ceiling: 10000
Heat Index: 52°   Visibility: 10mi
Dew Point: 41°   Wind: 7mph
Humidity: 66%   Direction: 110°ESE
Pressure: 30.14"   Gusts: NA
Location:  37.5498°N, 77.4598°W
Report Text: KRIC 260254Z 11006KT 10SM FEW050 BKN100 OVC120 11/05 A3014 RMK AO2 SLP211 T01110050 51017
Loading
Personal Weather Stations






























Interactive Weather Map New forecast layout! Learn more

10-Day Weather Forecast

Advertisements
Track Severe Weather on mobile